Date,TemperatureHighF,TemperatureAvgF,TemperatureLowF,DewpointHighF,DewpointAvgF,DewpointLowF,HumidityHigh,HumidityAvg,HumidityLow,PressureMaxIn,PressureMinIn,WindSpeedMaxMPH,WindSpeedAvgMPH,GustSpeedMaxMPH,PrecipitationSumIn
2013-1-1,41.9,32.6,27.3,15.2,13.1,9.9,57,45,27,30.36,30.21,0,0,0,0.00
2013-1-4,50.2,40.7,29.3,9.7,6.8,4.1,41,25,16,30.35,30.22,0,0,0,0.00
2013-1-5,50.4,39.0,27.3,11.4,8.6,5.2,47,29,18,30.38,30.14,0,0,0,0.00
2013-1-6,54.1,41.4,33.5,20.8,14.7,8.1,52,34,20,30.14,29.91,0,0,0,0.00
2013-1-7,36.6,35.4,34.1,23.4,19.5,16.8,61,52,46,29.98,29.93,0,0,0,0.00
2013-1-8,60.9,50.7,47.7,28.4,-10.3,-99.9,46,41,26,30.17,30.01,0,0,0,0.00
2013-1-9,60.1,51.0,43.1,31.0,-23.7,-99.9,58,41,27,30.19,29.77,1,0,0,0.00
2013-1-10,54.2,47.3,35.5,33.7,18.8,1.3,54,33,19,29.83,29.59,5,0,0,0.00
2013-1-11,45.4,35.0,27.2,16.4,9.0,3.9,46,34,19,30.03,29.83,0,0,0,0.00
2013-1-12,42.5,32.0,26.0,9.5,4.7,-0.2,46,32,17,30.14,30.00,0,0,0,0.00
2013-1-13,27.2,25.9,25.0,3.9,3.3,2.4,39,37,34,30.14,30.13,0,0,0,0.00
2013-1-14,35.9,30.4,24.2,0.4,-6.6,-99.9,33,23,16,30.45,30.31,0,0,0,0.00
2013-1-15,44.2,30.9,19.5,10.6,4.4,-0.7,44,33,23,30.59,30.44,0,0,0,0.00
2013-1-16,54.8,44.7,30.1,19.6,18.2,15.9,56,35,24,30.54,30.25,0,0,0,0.00
2013-1-17,59.2,43.7,32.1,16.5,10.9,-99.9,47,29,14,30.43,30.21,0,0,0,0.00
2013-1-18,58.0,45.0,34.9,14.6,12.9,11.0,41,28,16,30.35,30.19,0,0,0,0.00
2013-1-19,47.9,40.0,36.5,13.5,12.1,10.0,36,32,23,30.34,30.22,0,0,0,0.00
2013-1-26,57.2,52.7,48.3,51.5,48.1,44.0,95,85,74,29.83,29.74,8,1,0,0.29
2013-1-27,59.2,51.9,43.9,45.9,36.8,27.6,85,57,43,29.80,29.71,11,0,14,0.00
2013-1-28,48.9,42.9,36.5,28.5,17.0,8.4,65,37,20,30.03,29.79,0,0,0,0.00
2013-1-29,55.4,43.5,32.5,29.1,22.8,16.0,60,45,27,30.20,29.96,7,0,0,0.00
2013-1-30,63.7,48.8,35.9,32.2,6.8,-99.9,66,45,25,30.31,30.09,6,0,0,0.00
2013-1-31,65.0,50.8,38.5,32.2,27.0,-99.9,68,46,23,30.27,30.11,5,0,0,0.00
2013-2-1,65.0,52.8,38.9,34.1,0.1,-99.9,68,44,26,30.21,30.09,4,0,0,0.00
2013-2-2,64.5,54.8,45.2,33.2,27.0,22.1,57,36,20,30.27,30.08,5,0,0,0.00
2013-2-3,68.1,57.1,47.4,34.6,29.5,25.1,55,35,24,30.08,29.91,5,0,0,0.00
2013-2-4,50.1,48.1,46.5,33.2,32.3,31.5,57,54,51,29.99,29.96,0,0,0,0.00
2013-2-5,60.2,58.4,57.0,21.7,20.4,19.4,23,23,21,29.75,29.72,0,0,0,0.00
2013-2-6,60.2,56.8,54.8,24.2,22.8,21.2,29,27,22,29.72,29.70,0,0,0,0.00
2013-2-7,68.3,59.0,45.4,24.3,20.8,15.4,39,23,16,30.04,29.63,13,2,17,0.00
2013-2-8,53.9,46.6,38.6,31.2,22.6,16.1,62,40,23,29.70,29.59,0,0,0,0.00
2013-2-9,55.4,44.7,37.2,28.3,22.4,16.6,67,44,24,29.92,29.66,0,0,0,0.00
2013-2-10,53.8,43.2,35.6,24.6,0.1,-99.9,54,37,21,29.97,29.84,0,0,0,0.00
2013-2-11,50.2,41.3,34.0,24.3,0.2,-99.9,55,34,18,30.20,29.97,0,0,0,0.00
2013-2-12,55.0,41.0,12.2,14.7,-3.6,-99.9,45,30,17,30.35,30.16,24,1,24,0.00
2013-2-13,62.3,48.0,34.0,23.2,17.5,-99.9,50,32,20,30.28,30.09,5,0,0,0.00
2013-2-14,47.0,45.9,43.3,23.1,21.5,20.8,44,38,35,30.11,30.09,0,0,0,0.00
2013-2-20,55.7,49.2,39.5,33.9,-11.1,-99.9,74,48,29,29.79,29.56,0,0,0,0.00
2013-2-21,41.2,37.8,35.6,31.9,22.7,18.5,73,55,43,29.94,29.77,0,0,0,0.00